sensor_id;sensor_type;location;lat;lon;timestamp;pressure;altitude;pressure_sealevel;temperature;humidity
37068;BME280;22982;42.848;25.468;2023-09-07T00:01:06;96828.66;;;14.89;100.00
37068;BME280;22982;42.848;25.468;2023-09-07T00:06:09;96807.84;;;14.59;100.00
37068;BME280;22982;42.848;25.468;2023-09-07T00:11:12;96844.06;;;14.83;100.00
37068;BME280;22982;42.848;25.468;2023-09-07T00:16:14;96820.94;;;14.86;100.00
37068;BME280;22982;42.848;25.468;2023-09-07T00:21:17;96846.59;;;15.23;100.00
37068;BME280;22982;42.848;25.468;2023-09-07T00:26:19;96816.81;;;15.08;100.00
37068;BME280;22982;42.848;25.468;2023-09-07T00:31:21;96818.69;;;15.19;100.00
37068;BME280;22982;42.848;25.468;2023-09-07T00:36:25;96807.28;;;15.18;100.00
37068;BME280;22982;42.848;25.468;2023-09-07T00:41:27;96813.59;;;15.41;100.00
37068;BME280;22982;42.848;25.468;2023-09-07T00:46:30;96817.22;;;15.27;100.00
37068;BME280;22982;42.848;25.468;2023-09-07T00:51:33;96815.22;;;15.18;100.00
37068;BME280;22982;42.848;25.468;2023-09-07T00:56:37;96823.38;;;15.02;100.00
37068;BME280;22982;42.848;25.468;2023-09-07T01:01:39;96816.59;;;15.11;100.00
37068;BME280;22982;42.848;25.468;2023-09-07T01:06:56;96813.22;;;15.22;100.00
37068;BME280;22982;42.848;25.468;2023-09-07T01:12:05;96778.88;;;15.22;100.00
37068;BME280;22982;42.848;25.468;2023-09-07T01:17:10;96819.47;;;14.82;100.00
37068;BME280;22982;42.848;25.468;2023-09-07T01:22:19;96822.53;;;14.76;100.00
37068;BME280;22982;42.848;25.468;2023-09-07T01:27:25;96817.66;;;14.83;100.00
37068;BME280;22982;42.848;25.468;2023-09-07T01:32:28;96811.19;;;14.61;100.00
37068;BME280;22982;42.848;25.468;2023-09-07T01:37:30;96819.47;;;14.69;100.00
37068;BME280;22982;42.848;25.468;2023-09-07T01:42:34;96814.72;;;14.74;100.00
37068;BME280;22982;42.848;25.468;2023-09-07T01:47:36;96803.44;;;14.72;100.00
37068;BME280;22982;42.848;25.468;2023-09-07T01:52:40;96813.66;;;14.64;100.00
37068;BME280;22982;42.848;25.468;2023-09-07T01:57:43;96817.63;;;14.57;100.00
37068;BME280;22982;42.848;25.468;2023-09-07T02:02:46;96809.59;;;14.46;100.00
37068;BME280;22982;42.848;25.468;2023-09-07T02:07:49;96816.41;;;14.23;100.00
37068;BME280;22982;42.848;25.468;2023-09-07T02:12:52;96817.97;;;14.25;100.00
37068;BME280;22982;42.848;25.468;2023-09-07T02:17:54;96831.97;;;14.40;100.00
37068;BME280;22982;42.848;25.468;2023-09-07T02:22:58;96832.91;;;14.52;100.00
37068;BME280;22982;42.848;25.468;2023-09-07T02:28:01;96821.16;;;14.30;100.00
37068;BME280;22982;42.848;25.468;2023-09-07T02:33:03;96842.13;;;14.19;100.00
37068;BME280;22982;42.848;25.468;2023-09-07T02:38:07;96819.19;;;13.52;100.00
37068;BME280;22982;42.848;25.468;2023-09-07T02:43:10;96842.53;;;13.15;100.00
37068;BME280;22982;42.848;25.468;2023-09-07T02:48:13;96835.81;;;13.24;100.00
37068;BME280;22982;42.848;25.468;2023-09-07T02:53:16;96856.06;;;13.38;100.00
37068;BME280;22982;42.848;25.468;2023-09-07T02:58:22;96853.81;;;13.46;100.00
37068;BME280;22982;42.848;25.468;2023-09-07T03:03:25;96849.28;;;13.63;100.00
37068;BME280;22982;42.848;25.468;2023-09-07T03:08:29;96804.72;;;13.31;100.00
37068;BME280;22982;42.848;25.468;2023-09-07T03:13:32;96833.09;;;13.54;100.00
37068;BME280;22982;42.848;25.468;2023-09-07T03:18:35;96862.69;;;13.72;100.00
37068;BME280;22982;42.848;25.468;2023-09-07T03:24:02;96854.56;;;13.48;100.00
37068;BME280;22982;42.848;25.468;2023-09-07T03:29:07;96851.09;;;13.33;100.00
37068;BME280;22982;42.848;25.468;2023-09-07T03:34:10;96848.91;;;13.26;100.00
37068;BME280;22982;42.848;25.468;2023-09-07T03:39:13;96877.69;;;13.14;100.00
37068;BME280;22982;42.848;25.468;2023-09-07T03:44:17;96883.34;;;13.08;100.00
37068;BME280;22982;42.848;25.468;2023-09-07T03:49:20;96875.78;;;13.02;100.00
37068;BME280;22982;42.848;25.468;2023-09-07T03:54:23;96868.84;;;12.87;100.00
37068;BME280;22982;42.848;25.468;2023-09-07T03:59:27;96879.75;;;13.09;100.00
37068;BME280;22982;42.848;25.468;2023-09-07T04:04:31;96884.56;;;13.46;100.00
37068;BME280;22982;42.848;25.468;2023-09-07T04:09:33;96852.69;;;13.50;100.00
37068;BME280;22982;42.848;25.468;2023-09-07T04:14:36;96867.53;;;13.51;100.00
37068;BME280;22982;42.848;25.468;2023-09-07T04:19:39;96864.44;;;13.45;100.00
37068;BME280;22982;42.848;25.468;2023-09-07T04:24:42;96887.28;;;13.58;100.00
37068;BME280;22982;42.848;25.468;2023-09-07T04:29:45;96879.88;;;13.51;100.00
37068;BME280;22982;42.848;25.468;2023-09-07T04:34:53;96885.06;;;13.38;100.00
37068;BME280;22982;42.848;25.468;2023-09-07T04:39:56;96884.25;;;13.07;100.00
37068;BME280;22982;42.848;25.468;2023-09-07T04:44:59;96890.75;;;13.16;100.00
37068;BME280;22982;42.848;25.468;2023-09-07T04:50:02;96884.00;;;13.12;100.00
37068;BME280;22982;42.848;25.468;2023-09-07T04:55:27;96894.31;;;13.15;100.00
37068;BME280;22982;42.848;25.468;2023-09-07T05:01:11;96907.50;;;13.15;100.00
37068;BME280;22982;42.848;25.468;2023-09-07T05:06:16;96909.19;;;13.30;100.00
37068;BME280;22982;42.848;25.468;2023-09-07T05:11:19;96913.75;;;13.57;100.00
37068;BME280;22982;42.848;25.468;2023-09-07T05:16:21;96889.66;;;13.63;100.00
37068;BME280;22982;42.848;25.468;2023-09-07T05:21:25;96897.59;;;13.90;100.00
37068;BME280;22982;42.848;25.468;2023-09-07T05:26:27;96889.97;;;14.27;100.00
37068;BME280;22982;42.848;25.468;2023-09-07T05:31:30;96883.84;;;14.40;100.00
37068;BME280;22982;42.848;25.468;2023-09-07T05:36:33;96890.47;;;14.60;100.00
37068;BME280;22982;42.848;25.468;2023-09-07T05:41:35;96866.88;;;16.22;100.00
37068;BME280;22982;42.848;25.468;2023-09-07T05:46:39;96859.66;;;22.71;100.00
37068;BME280;22982;42.848;25.468;2023-09-07T06:06:03;96851.06;;;23.82;81.93
37068;BME280;22982;42.848;25.468;2023-09-07T06:11:07;96846.00;;;28.14;56.28
37068;BME280;22982;42.848;25.468;2023-09-07T06:16:10;96824.31;;;30.00;48.86
37068;BME280;22982;42.848;25.468;2023-09-07T06:21:13;96797.06;;;30.01;47.62
37068;BME280;22982;42.848;25.468;2023-09-07T06:26:15;96807.31;;;31.93;43.24
37068;BME280;22982;42.848;25.468;2023-09-07T06:31:20;96809.84;;;34.02;38.99
37068;BME280;22982;42.848;25.468;2023-09-07T06:36:23;96813.41;;;34.21;38.17
37068;BME280;22982;42.848;25.468;2023-09-07T06:41:46;96820.50;;;34.52;37.18
37068;BME280;22982;42.848;25.468;2023-09-07T06:46:52;96808.31;;;34.85;36.01
37068;BME280;22982;42.848;25.468;2023-09-07T06:51:54;96800.75;;;34.87;35.45
37068;BME280;22982;42.848;25.468;2023-09-07T06:56:58;96788.88;;;34.94;35.95
37068;BME280;22982;42.848;25.468;2023-09-07T07:02:01;96811.81;;;34.44;36.86
37068;BME280;22982;42.848;25.468;2023-09-07T07:07:03;96821.47;;;33.35;39.35
37068;BME280;22982;42.848;25.468;2023-09-07T07:12:08;96808.31;;;32.43;40.77
37068;BME280;22982;42.848;25.468;2023-09-07T07:17:12;96798.16;;;32.32;40.67
37068;BME280;22982;42.848;25.468;2023-09-07T07:22:15;96797.03;;;32.08;41.51
37068;BME280;22982;42.848;25.468;2023-09-07T07:27:22;96777.81;;;31.44;41.18
37068;BME280;22982;42.848;25.468;2023-09-07T07:32:25;96809.69;;;30.49;44.19
37068;BME280;22982;42.848;25.468;2023-09-07T07:37:28;96801.00;;;30.73;42.83
37068;BME280;22982;42.848;25.468;2023-09-07T07:42:32;96805.69;;;29.42;43.95
37068;BME280;22982;42.848;25.468;2023-09-07T07:47:35;96807.28;;;30.19;42.41
37068;BME280;22982;42.848;25.468;2023-09-07T07:52:37;96799.50;;;30.64;40.64
37068;BME280;22982;42.848;25.468;2023-09-07T07:57:41;96784.13;;;31.12;39.85
37068;BME280;22982;42.848;25.468;2023-09-07T08:02:45;96779.19;;;31.80;38.81
37068;BME280;22982;42.848;25.468;2023-09-07T08:07:49;96771.16;;;31.40;39.05
37068;BME280;22982;42.848;25.468;2023-09-07T08:12:56;96805.84;;;31.90;38.91
37068;BME280;22982;42.848;25.468;2023-09-07T08:17:59;96773.59;;;31.68;37.83
37068;BME280;22982;42.848;25.468;2023-09-07T08:23:03;96789.13;;;32.00;35.56
37068;BME280;22982;42.848;25.468;2023-09-07T08:28:09;96782.00;;;31.54;36.85
37068;BME280;22982;42.848;25.468;2023-09-07T08:33:12;96791.47;;;31.83;37.69
37068;BME280;22982;42.848;25.468;2023-09-07T08:38:15;96791.47;;;31.83;36.38
37068;BME280;22982;42.848;25.468;2023-09-07T08:43:19;96795.34;;;31.28;37.19
37068;BME280;22982;42.848;25.468;2023-09-07T08:48:22;96798.88;;;30.82;36.38
37068;BME280;22982;42.848;25.468;2023-09-07T08:53:25;96761.66;;;31.04;37.35
37068;BME280;22982;42.848;25.468;2023-09-07T08:58:28;96801.75;;;31.67;36.17
37068;BME280;22982;42.848;25.468;2023-09-07T09:03:31;96775.34;;;32.08;34.84
37068;BME280;22982;42.848;25.468;2023-09-07T09:08:54;96792.84;;;31.54;35.77
37068;BME280;22982;42.848;25.468;2023-09-07T09:13:56;96756.16;;;31.31;35.72
37068;BME280;22982;42.848;25.468;2023-09-07T09:19:00;96774.03;;;32.49;34.21
37068;BME280;22982;42.848;25.468;2023-09-07T09:24:02;96769.25;;;32.44;32.88
37068;BME280;22982;42.848;25.468;2023-09-07T09:29:06;96759.63;;;32.17;33.19
37068;BME280;22982;42.848;25.468;2023-09-07T09:34:08;96759.06;;;30.29;37.03
37068;BME280;22982;42.848;25.468;2023-09-07T09:39:24;96763.28;;;30.79;35.47
37068;BME280;22982;42.848;25.468;2023-09-07T09:44:28;96751.81;;;31.30;35.08
37068;BME280;22982;42.848;25.468;2023-09-07T09:49:31;96729.97;;;30.71;34.98
37068;BME280;22982;42.848;25.468;2023-09-07T09:54:35;96714.97;;;30.82;36.59
37068;BME280;22982;42.848;25.468;2023-09-07T09:59:38;96714.16;;;31.67;35.74
37068;BME280;22982;42.848;25.468;2023-09-07T10:04:42;96764.72;;;30.41;37.27
37068;BME280;22982;42.848;25.468;2023-09-07T10:09:45;96745.09;;;30.19;38.11
37068;BME280;22982;42.848;25.468;2023-09-07T10:14:48;96721.66;;;30.53;36.51
37068;BME280;22982;42.848;25.468;2023-09-07T10:20:04;96734.53;;;30.44;37.80
37068;BME280;22982;42.848;25.468;2023-09-07T10:25:21;96708.72;;;31.08;38.03
37068;BME280;22982;42.848;25.468;2023-09-07T10:30:25;96731.22;;;31.74;36.55
37068;BME280;22982;42.848;25.468;2023-09-07T10:35:35;96730.47;;;31.60;37.21
37068;BME280;22982;42.848;25.468;2023-09-07T10:40:39;96729.94;;;30.25;38.45
37068;BME280;22982;42.848;25.468;2023-09-07T10:45:46;96714.47;;;31.39;37.44
37068;BME280;22982;42.848;25.468;2023-09-07T10:50:52;96705.81;;;31.03;37.50
37068;BME280;22982;42.848;25.468;2023-09-07T10:55:57;96697.84;;;31.80;37.24
37068;BME280;22982;42.848;25.468;2023-09-07T11:01:01;96701.94;;;31.44;37.51
37068;BME280;22982;42.848;25.468;2023-09-07T11:06:15;96709.47;;;31.29;37.26
37068;BME280;22982;42.848;25.468;2023-09-07T11:11:21;96699.13;;;30.86;38.51
37068;BME280;22982;42.848;25.468;2023-09-07T11:16:25;96692.50;;;30.95;36.78
37068;BME280;22982;42.848;25.468;2023-09-07T11:21:30;96682.69;;;30.87;38.04
37068;BME280;22982;42.848;25.468;2023-09-07T11:26:44;96693.25;;;29.89;39.33
37068;BME280;22982;42.848;25.468;2023-09-07T11:31:47;96666.09;;;29.55;39.04
37068;BME280;22982;42.848;25.468;2023-09-07T11:36:50;96669.97;;;29.94;38.85
37068;BME280;22982;42.848;25.468;2023-09-07T11:41:52;96673.03;;;28.10;41.95
37068;BME280;22982;42.848;25.468;2023-09-07T11:46:57;96684.00;;;29.70;39.96
37068;BME280;22982;42.848;25.468;2023-09-07T11:51:59;96689.59;;;29.68;39.02
37068;BME280;22982;42.848;25.468;2023-09-07T11:57:02;96671.94;;;29.17;40.43
37068;BME280;22982;42.848;25.468;2023-09-07T12:02:08;96682.75;;;28.82;41.02
37068;BME280;22982;42.848;25.468;2023-09-07T12:07:15;96678.41;;;29.16;40.63
37068;BME280;22982;42.848;25.468;2023-09-07T12:12:17;96678.69;;;28.43;40.99
37068;BME280;22982;42.848;25.468;2023-09-07T12:17:20;96654.31;;;28.30;43.40
37068;BME280;22982;42.848;25.468;2023-09-07T12:22:23;96668.91;;;27.93;41.30
37068;BME280;22982;42.848;25.468;2023-09-07T12:27:26;96661.44;;;28.16;42.78
37068;BME280;22982;42.848;25.468;2023-09-07T12:32:40;96657.97;;;28.72;42.04
37068;BME280;22982;42.848;25.468;2023-09-07T12:43:32;96642.91;;;28.06;38.54
37068;BME280;22982;42.848;25.468;2023-09-07T12:48:36;96644.66;;;27.56;41.66
37068;BME280;22982;42.848;25.468;2023-09-07T12:53:38;96645.31;;;27.80;41.34
37068;BME280;22982;42.848;25.468;2023-09-07T13:10:58;96652.63;;;28.01;39.87
37068;BME280;22982;42.848;25.468;2023-09-07T13:16:01;96630.56;;;27.54;41.03
37068;BME280;22982;42.848;25.468;2023-09-07T13:21:08;96636.78;;;27.76;40.60
37068;BME280;22982;42.848;25.468;2023-09-07T13:26:23;96624.84;;;27.64;41.05
37068;BME280;22982;42.848;25.468;2023-09-07T13:31:26;96644.22;;;27.74;41.82
37068;BME280;22982;42.848;25.468;2023-09-07T13:36:29;96651.72;;;27.57;40.90
37068;BME280;22982;42.848;25.468;2023-09-07T13:41:31;96625.44;;;27.59;40.94
37068;BME280;22982;42.848;25.468;2023-09-07T13:46:34;96633.88;;;27.56;40.78
37068;BME280;22982;42.848;25.468;2023-09-07T13:51:37;96630.03;;;27.65;40.99
37068;BME280;22982;42.848;25.468;2023-09-07T13:56:42;96633.94;;;27.99;42.09
37068;BME280;22982;42.848;25.468;2023-09-07T14:01:47;96627.09;;;27.82;42.53
37068;BME280;22982;42.848;25.468;2023-09-07T14:06:51;96625.00;;;27.41;43.69
37068;BME280;22982;42.848;25.468;2023-09-07T14:11:54;96629.84;;;27.67;43.87
37068;BME280;22982;42.848;25.468;2023-09-07T14:16:56;96618.25;;;27.30;46.16
37068;BME280;22982;42.848;25.468;2023-09-07T14:22:00;96626.00;;;27.55;46.83
37068;BME280;22982;42.848;25.468;2023-09-07T14:27:03;96618.75;;;27.77;43.18
37068;BME280;22982;42.848;25.468;2023-09-07T14:32:06;96615.72;;;28.01;41.62
37068;BME280;22982;42.848;25.468;2023-09-07T14:37:11;96589.63;;;27.87;40.27
37068;BME280;22982;42.848;25.468;2023-09-07T14:42:13;96584.75;;;28.19;40.44
37068;BME280;22982;42.848;25.468;2023-09-07T14:47:19;96614.88;;;28.29;39.87
37068;BME280;22982;42.848;25.468;2023-09-07T14:52:27;96606.38;;;27.82;42.29
37068;BME280;22982;42.848;25.468;2023-09-07T14:57:30;96588.66;;;27.73;41.63
37068;BME280;22982;42.848;25.468;2023-09-07T15:02:32;96587.75;;;27.44;47.77
37068;BME280;22982;42.848;25.468;2023-09-07T15:07:36;96593.59;;;27.11;54.47
37068;BME280;22982;42.848;25.468;2023-09-07T15:12:38;96614.13;;;26.68;47.90
37068;BME280;22982;42.848;25.468;2023-09-07T15:17:47;96600.50;;;26.84;56.45
37068;BME280;22982;42.848;25.468;2023-09-07T15:22:50;96600.50;;;26.84;57.19
37068;BME280;22982;42.848;25.468;2023-09-07T15:27:53;96576.09;;;26.56;56.52
37068;BME280;22982;42.848;25.468;2023-09-07T15:32:56;96591.59;;;26.16;65.30
37068;BME280;22982;42.848;25.468;2023-09-07T15:37:59;96607.13;;;26.29;64.49
37068;BME280;22982;42.848;25.468;2023-09-07T15:43:03;96591.34;;;26.11;74.45
37068;BME280;22982;42.848;25.468;2023-09-07T15:48:06;96600.00;;;25.75;81.92
37068;BME280;22982;42.848;25.468;2023-09-07T15:53:08;96576.31;;;25.32;82.20
37068;BME280;22982;42.848;25.468;2023-09-07T15:58:11;96573.22;;;24.81;91.92
37068;BME280;22982;42.848;25.468;2023-09-07T16:03:14;96569.31;;;24.36;95.89
37068;BME280;22982;42.848;25.468;2023-09-07T16:08:17;96587.09;;;23.55;100.00
37068;BME280;22982;42.848;25.468;2023-09-07T16:13:19;96570.31;;;23.20;100.00
37068;BME280;22982;42.848;25.468;2023-09-07T16:18:22;96616.47;;;23.30;100.00
37068;BME280;22982;42.848;25.468;2023-09-07T16:23:25;96628.19;;;22.52;100.00
37068;BME280;22982;42.848;25.468;2023-09-07T16:28:28;96591.56;;;21.74;100.00
37068;BME280;22982;42.848;25.468;2023-09-07T16:33:31;96601.69;;;21.34;100.00
37068;BME280;22982;42.848;25.468;2023-09-07T16:38:33;96614.47;;;21.13;100.00
37068;BME280;22982;42.848;25.468;2023-09-07T16:43:37;96638.06;;;21.08;100.00
37068;BME280;22982;42.848;25.468;2023-09-07T16:48:39;96623.06;;;20.79;100.00
37068;BME280;22982;42.848;25.468;2023-09-07T16:53:43;96657.34;;;20.64;100.00
37068;BME280;22982;42.848;25.468;2023-09-07T16:58:45;96643.44;;;20.70;100.00
37068;BME280;22982;42.848;25.468;2023-09-07T17:03:51;96655.94;;;20.60;100.00
37068;BME280;22982;42.848;25.468;2023-09-07T17:08:54;96645.84;;;19.97;100.00
37068;BME280;22982;42.848;25.468;2023-09-07T17:13:57;96653.41;;;19.82;100.00
37068;BME280;22982;42.848;25.468;2023-09-07T17:19:03;96675.53;;;19.92;100.00
37068;BME280;22982;42.848;25.468;2023-09-07T17:24:08;96677.22;;;19.74;100.00
37068;BME280;22982;42.848;25.468;2023-09-07T17:29:12;96698.94;;;19.79;100.00
37068;BME280;22982;42.848;25.468;2023-09-07T17:34:16;96662.47;;;19.60;100.00
37068;BME280;22982;42.848;25.468;2023-09-07T17:39:18;96684.31;;;19.63;100.00
37068;BME280;22982;42.848;25.468;2023-09-07T17:44:21;96676.91;;;19.57;100.00
37068;BME280;22982;42.848;25.468;2023-09-07T17:49:23;96701.53;;;19.69;100.00
37068;BME280;22982;42.848;25.468;2023-09-07T17:54:27;96680.34;;;19.28;100.00
37068;BME280;22982;42.848;25.468;2023-09-07T17:59:29;96711.03;;;19.42;100.00
37068;BME280;22982;42.848;25.468;2023-09-07T18:04:32;96697.72;;;19.32;100.00
37068;BME280;22982;42.848;25.468;2023-09-07T18:09:34;96712.25;;;19.28;100.00
37068;BME280;22982;42.848;25.468;2023-09-07T18:14:37;96715.03;;;19.17;100.00
37068;BME280;22982;42.848;25.468;2023-09-07T18:19:40;96705.34;;;19.06;100.00
37068;BME280;22982;42.848;25.468;2023-09-07T18:24:42;96740.09;;;19.24;100.00
37068;BME280;22982;42.848;25.468;2023-09-07T18:29:45;96719.63;;;19.15;100.00
37068;BME280;22982;42.848;25.468;2023-09-07T18:34:48;96718.34;;;19.09;100.00
37068;BME280;22982;42.848;25.468;2023-09-07T18:39:51;96734.66;;;19.36;100.00
37068;BME280;22982;42.848;25.468;2023-09-07T18:44:54;96708.47;;;19.31;100.00
37068;BME280;22982;42.848;25.468;2023-09-07T18:49:57;96731.41;;;19.22;100.00
37068;BME280;22982;42.848;25.468;2023-09-07T18:55:00;96750.28;;;19.19;100.00
37068;BME280;22982;42.848;25.468;2023-09-07T19:00:04;96734.53;;;18.97;100.00
37068;BME280;22982;42.848;25.468;2023-09-07T19:05:07;96732.44;;;19.00;100.00
37068;BME280;22982;42.848;25.468;2023-09-07T19:10:11;96752.06;;;18.36;100.00
37068;BME280;22982;42.848;25.468;2023-09-07T19:15:14;96755.44;;;18.38;100.00
37068;BME280;22982;42.848;25.468;2023-09-07T19:20:19;96748.75;;;18.44;100.00
37068;BME280;22982;42.848;25.468;2023-09-07T19:25:22;96765.47;;;18.34;100.00
37068;BME280;22982;42.848;25.468;2023-09-07T19:30:24;96787.53;;;18.03;100.00
37068;BME280;22982;42.848;25.468;2023-09-07T19:35:27;96767.66;;;17.97;100.00
37068;BME280;22982;42.848;25.468;2023-09-07T19:40:30;96792.38;;;18.30;100.00
37068;BME280;22982;42.848;25.468;2023-09-07T19:45:32;96781.66;;;17.99;100.00
37068;BME280;22982;42.848;25.468;2023-09-07T19:50:35;96798.94;;;17.82;100.00
37068;BME280;22982;42.848;25.468;2023-09-07T19:55:37;96786.28;;;17.86;100.00
37068;BME280;22982;42.848;25.468;2023-09-07T20:00:40;96784.69;;;17.83;100.00
37068;BME280;22982;42.848;25.468;2023-09-07T20:05:43;96807.22;;;18.32;100.00
37068;BME280;22982;42.848;25.468;2023-09-07T20:10:46;96817.50;;;18.26;100.00
37068;BME280;22982;42.848;25.468;2023-09-07T20:15:49;96813.50;;;17.99;100.00
37068;BME280;22982;42.848;25.468;2023-09-07T20:20:51;96805.78;;;17.85;100.00
37068;BME280;22982;42.848;25.468;2023-09-07T20:25:54;96824.16;;;17.54;100.00
37068;BME280;22982;42.848;25.468;2023-09-07T20:30:57;96807.00;;;17.92;100.00
37068;BME280;22982;42.848;25.468;2023-09-07T20:36:01;96815.84;;;17.58;100.00
37068;BME280;22982;42.848;25.468;2023-09-07T20:41:04;96812.81;;;17.74;100.00
37068;BME280;22982;42.848;25.468;2023-09-07T20:46:07;96803.06;;;17.64;100.00
37068;BME280;22982;42.848;25.468;2023-09-07T20:51:10;96801.47;;;17.72;100.00
37068;BME280;22982;42.848;25.468;2023-09-07T20:56:13;96809.44;;;17.61;100.00
37068;BME280;22982;42.848;25.468;2023-09-07T21:01:15;96801.41;;;17.06;100.00
37068;BME280;22982;42.848;25.468;2023-09-07T21:06:19;96810.72;;;16.76;100.00
37068;BME280;22982;42.848;25.468;2023-09-07T21:11:21;96795.53;;;16.91;100.00
37068;BME280;22982;42.848;25.468;2023-09-07T21:16:23;96801.03;;;16.99;100.00
37068;BME280;22982;42.848;25.468;2023-09-07T21:21:27;96799.91;;;16.79;100.00
37068;BME280;22982;42.848;25.468;2023-09-07T21:26:30;96796.50;;;16.19;100.00
37068;BME280;22982;42.848;25.468;2023-09-07T21:31:32;96803.63;;;16.19;100.00
37068;BME280;22982;42.848;25.468;2023-09-07T21:36:35;96805.69;;;15.78;100.00
37068;BME280;22982;42.848;25.468;2023-09-07T21:41:47;96793.47;;;15.51;100.00
37068;BME280;22982;42.848;25.468;2023-09-07T21:46:51;96816.31;;;15.53;100.00
37068;BME280;22982;42.848;25.468;2023-09-07T21:51:53;96821.41;;;15.43;100.00
37068;BME280;22982;42.848;25.468;2023-09-07T21:56:55;96825.66;;;15.32;100.00
37068;BME280;22982;42.848;25.468;2023-09-07T22:01:59;96799.66;;;15.26;100.00
37068;BME280;22982;42.848;25.468;2023-09-07T22:07:01;96826.72;;;15.30;100.00
37068;BME280;22982;42.848;25.468;2023-09-07T22:12:05;96807.94;;;15.22;100.00
37068;BME280;22982;42.848;25.468;2023-09-07T22:17:07;96826.94;;;15.27;100.00
37068;BME280;22982;42.848;25.468;2023-09-07T22:22:11;96813.13;;;15.10;100.00
37068;BME280;22982;42.848;25.468;2023-09-07T22:27:13;96820.19;;;14.97;100.00
37068;BME280;22982;42.848;25.468;2023-09-07T22:32:16;96809.97;;;14.80;100.00
37068;BME280;22982;42.848;25.468;2023-09-07T22:37:19;96820.19;;;14.97;100.00
37068;BME280;22982;42.848;25.468;2023-09-07T22:42:22;96811.94;;;15.27;100.00
37068;BME280;22982;42.848;25.468;2023-09-07T22:47:24;96809.84;;;15.07;100.00
37068;BME280;22982;42.848;25.468;2023-09-07T22:52:28;96811.63;;;14.93;100.00
37068;BME280;22982;42.848;25.468;2023-09-07T22:57:31;96813.66;;;14.64;100.00
37068;BME280;22982;42.848;25.468;2023-09-07T23:02:38;96803.69;;;14.55;100.00
37068;BME280;22982;42.848;25.468;2023-09-07T23:07:43;96802.31;;;14.49;100.00
37068;BME280;22982;42.848;25.468;2023-09-07T23:12:46;96813.84;;;14.21;100.00
37068;BME280;22982;42.848;25.468;2023-09-07T23:17:48;96817.03;;;14.26;100.00
37068;BME280;22982;42.848;25.468;2023-09-07T23:22:51;96820.63;;;14.38;100.00
37068;BME280;22982;42.848;25.468;2023-09-07T23:27:54;96806.38;;;14.28;100.00
37068;BME280;22982;42.848;25.468;2023-09-07T23:32:56;96803.88;;;14.39;100.00
37068;BME280;22982;42.848;25.468;2023-09-07T23:38:02;96804.50;;;14.30;100.00
37068;BME280;22982;42.848;25.468;2023-09-07T23:43:04;96811.94;;;14.23;100.00
37068;BME280;22982;42.848;25.468;2023-09-07T23:48:08;96810.09;;;14.38;100.00
37068;BME280;22982;42.848;25.468;2023-09-07T23:53:10;96803.97;;;14.38;100.00
37068;BME280;22982;42.848;25.468;2023-09-07T23:58:13;96798.16;;;14.32;100.00
